Time;durP1;ratioP1;P1;durP2;ratioP2;P2;SDS_P1;SDS_P2;PMS_P1;PMS_P2;Temp;Humidity;BMP_temperature;BMP_pressure;BME280_temperature;BME280_humidity;BME280_pressure;Samples;Min_cycle;Max_cycle;Signal;HPM_P1;HPM_P2
2022/11/03 00:01:03;;;;;;;13.60;2.70;;;;;;;13.32;95.07;101233.38;5044073;28;20163;-74
2022/11/03 00:03:30;;;;;;;3.20;1.15;;;;;;;13.28;95.01;101229.81;5043049;28;20132;-73
2022/11/03 00:06:05;;;;;;;15.38;2.95;;;;;;;13.30;95.13;101224.66;5039254;28;20785;-73
2022/11/03 00:08:35;;;;;;;15.57;2.97;;;;;;;13.32;94.85;101227.00;5033072;28;20056;-74
2022/11/03 00:11:08;;;;;;;19.70;3.10;;;;;;;13.29;95.36;101228.63;5037890;28;20045;-74
2022/11/03 00:13:36;;;;;;;9.70;2.05;;;;;;;13.32;94.96;101227.00;5040984;28;20814;-74
2022/11/03 00:16:02;;;;;;;16.65;3.65;;;;;;;13.33;94.74;101220.28;5037624;28;20056;-74
2022/11/03 00:18:29;;;;;;;10.07;1.58;;;;;;;13.30;95.05;101221.09;5035136;28;20063;-73
2022/11/03 00:20:56;;;;;;;12.93;1.55;;;;;;;13.26;95.38;101223.09;5034940;28;20051;-74
2022/11/03 00:23:32;;;;;;;16.25;1.63;;;;;;;13.31;95.29;101226.25;5038851;28;20064;-73
2022/11/03 00:26:03;;;;;;;12.55;1.90;;;;;;;13.34;94.80;101228.22;5040717;28;20056;-72
2022/11/03 00:28:34;;;;;;;11.25;2.25;;;;;;;13.38;95.44;101226.22;5042176;28;20057;-72
2022/11/03 00:31:04;;;;;;;13.82;2.75;;;;;;;13.39;95.64;101216.66;5044918;28;20055;-74
2022/11/03 00:33:31;;;;;;;9.98;2.53;;;;;;;13.34;95.70;101214.31;5044814;28;20067;-74
2022/11/03 00:36:02;;;;;;;16.35;3.15;;;;;;;13.35;96.13;101223.44;5039137;28;20056;-73
2022/11/03 00:38:29;;;;;;;13.43;2.60;;;;;;;13.34;96.59;101208.75;5042014;28;20575;-73
2022/11/03 00:40:57;;;;;;;18.00;2.00;;;;;;;13.35;96.58;101210.34;5041038;28;20056;-73
2022/11/03 00:43:25;;;;;;;13.63;2.03;;;;;;;13.28;97.68;101207.59;5045067;28;20055;-73
2022/11/03 00:45:52;;;;;;;10.57;2.95;;;;;;;13.30;98.18;101205.22;5037530;28;20049;-74
2022/11/03 00:48:29;;;;;;;17.20;2.67;;;;;;;13.36;98.43;101200.00;5040526;28;20052;-74
2022/11/03 00:51:12;;;;;;;13.23;2.38;;;;;;;13.42;98.46;101199.19;5042730;28;20048;-74
2022/11/03 00:53:50;;;;;;;12.70;2.30;;;;;;;13.44;98.78;101196.81;5029704;28;20064;-73
2022/11/03 00:56:28;;;;;;;9.43;1.85;;;;;;;13.38;99.54;101194.81;5044821;28;20044;-74
2022/11/03 00:58:57;;;;;;;12.52;2.67;;;;;;;13.44;99.30;101194.03;5045611;28;20048;-73
2022/11/03 01:01:26;;;;;;;8.50;1.40;;;;;;;13.40;100.00;101190.44;5043453;28;20067;-75
2022/11/03 01:06:49;;;;;;;5.22;1.10;;;;;;;13.40;100.00;101184.88;5040530;28;20055;-74
2022/11/03 01:09:42;;;;;;;10.25;1.75;;;;;;;13.42;100.00;101193.63;5037319;28;21352;-73
2022/11/03 01:12:12;;;;;;;12.23;2.75;;;;;;;13.50;100.00;101192.38;5036334;28;20561;-73
2022/11/03 01:14:42;;;;;;;10.07;1.80;;;;;;;13.48;100.00;101188.41;5045859;28;20534;-74
2022/11/03 01:17:20;;;;;;;13.23;2.45;;;;;;;13.46;100.00;101188.06;5047963;28;20052;-74
2022/11/03 01:19:47;;;;;;;4.18;0.90;;;;;;;13.43;100.00;101184.06;5044511;28;20053;-74
2022/11/03 01:22:15;;;;;;;18.50;3.35;;;;;;;13.53;100.00;101185.22;5031501;28;20064;-74
2022/11/03 01:24:42;;;;;;;24.27;2.70;;;;;;;13.45;100.00;101186.44;5039394;28;20095;-73
2022/11/03 01:27:11;;;;;;;11.32;2.53;;;;;;;13.46;100.00;101179.72;5031431;28;20057;-74
2022/11/03 01:29:39;;;;;;;14.85;2.60;;;;;;;13.46;100.00;101169.38;5034168;28;20803;-74
2022/11/03 01:32:07;;;;;;;8.93;1.92;;;;;;;13.45;100.00;101169.78;5045997;28;20049;-73
2022/11/03 01:34:33;;;;;;;15.27;2.75;;;;;;;13.47;100.00;101157.06;5030379;28;20052;-72
2022/11/03 01:37:00;;;;;;;19.08;2.97;;;;;;;13.47;100.00;101156.28;5036719;28;20055;-74
2022/11/03 01:39:27;;;;;;;15.10;2.70;;;;;;;13.49;100.00;101154.66;5039281;28;20591;-74
2022/11/03 01:41:53;;;;;;;13.73;2.10;;;;;;;13.45;100.00;101150.31;5041211;28;20055;-74
2022/11/03 01:44:27;;;;;;;10.05;2.20;;;;;;;13.42;100.00;101145.56;5046530;28;20837;-73
2022/11/03 01:47:25;;;;;;;15.25;3.08;;;;;;;13.41;100.00;101136.44;5048752;28;20514;-74
2022/11/03 01:50:01;;;;;;;4.72;1.48;;;;;;;13.35;100.00;101142.81;5044435;28;20048;-73
2022/11/03 01:52:36;;;;;;;12.23;2.50;;;;;;;13.38;100.00;101136.47;5046619;28;20816;-75
2022/11/03 01:55:11;;;;;;;1.88;0.82;;;;;;;13.39;100.00;101124.16;5041162;28;20052;-74
2022/11/03 01:57:46;;;;;;;14.25;2.47;;;;;;;13.41;100.00;101122.56;5043995;28;20121;-72
2022/11/03 02:00:12;;;;;;;;;;;;;;;13.35;100.00;101117.81;5043846;28;20059;-73
2022/11/03 02:02:40;;;;;;;14.85;2.60;;;;;;;13.33;100.00;101112.66;5061255;28;19956;-72
2022/11/03 02:05:09;;;;;;;19.40;2.95;;;;;;;13.32;100.00;101105.53;5067265;28;20078;-73
2022/11/03 02:07:39;;;;;;;13.40;2.80;;;;;;;13.33;100.00;101112.66;5058637;28;20414;-73
2022/11/03 02:10:07;;;;;;;14.68;2.63;;;;;;;13.31;100.00;101109.50;5065162;28;20146;-70
2022/11/03 02:12:35;;;;;;;16.00;2.75;;;;;;;13.31;100.00;101097.59;5061649;28;20056;-72
2022/11/03 02:15:09;;;;;;;14.85;2.58;;;;;;;13.27;100.00;101100.41;5057907;28;20680;-71
2022/11/03 02:17:38;;;;;;;17.60;2.72;;;;;;;13.33;100.00;101100.78;5055392;28;20040;-72
2022/11/03 02:20:10;;;;;;;10.25;1.40;;;;;;;13.25;100.00;101099.22;5062752;28;20119;-73
2022/11/03 02:22:52;;;;;;;13.40;2.72;;;;;;;13.27;100.00;101100.41;5058522;28;20053;-72
2022/11/03 02:25:47;;;;;;;14.52;2.13;;;;;;;13.22;100.00;101088.94;5058082;28;20455;-73
2022/11/03 02:28:20;;;;;;;13.68;2.40;;;;;;;13.30;100.00;101080.16;5059037;28;20061;-73
2022/11/03 02:31:24;;;;;;;17.58;2.55;;;;;;;13.21;100.00;101082.56;5060503;28;20048;-73
2022/11/03 02:33:59;;;;;;;16.30;3.28;;;;;;;13.24;100.00;101075.41;5058040;28;20402;-73
2022/11/03 02:36:25;;;;;;;13.30;2.70;;;;;;;13.32;100.00;101076.94;5059702;28;20045;-73
2022/11/03 02:39:01;;;;;;;14.50;2.22;;;;;;;13.25;100.00;101066.66;5068001;28;20055;-71
2022/11/03 02:41:31;;;;;;;12.52;2.47;;;;;;;13.30;100.00;101059.91;5056196;28;20041;-72
2022/11/03 02:44:03;;;;;;;14.32;2.25;;;;;;;13.21;100.00;101049.22;5060698;28;20060;-72
2022/11/03 02:46:31;;;;;;;12.30;2.70;;;;;;;13.28;100.00;101043.63;5065162;28;20543;-72
2022/11/03 02:48:58;;;;;;;12.23;2.17;;;;;;;13.10;100.00;101026.28;5058940;28;20049;-73
2022/11/03 02:51:24;;;;;;;12.55;2.65;;;;;;;13.24;100.00;101042.88;5058558;28;20044;-72
2022/11/03 02:54:02;;;;;;;12.80;2.88;;;;;;;13.21;100.00;101038.13;5061341;28;20054;-71
2022/11/03 02:56:31;;;;;;;14.65;3.20;;;;;;;13.23;100.00;101032.16;5064451;28;20448;-72
2022/11/03 02:59:12;;;;;;;7.95;2.15;;;;;;;13.18;100.00;101032.56;5066186;28;20504;-72
2022/11/03 03:01:55;;;;;;;12.65;2.88;;;;;;;13.21;100.00;101023.44;5056578;28;20056;-71
2022/11/03 03:04:30;;;;;;;11.98;2.55;;;;;;;13.15;100.00;101023.06;5064101;28;20078;-73
2022/11/03 03:07:04;;;;;;;15.40;3.00;;;;;;;13.18;100.00;101019.47;5064067;28;20048;-74
2022/11/03 03:09:38;;;;;;;15.73;2.85;;;;;;;13.15;100.00;101011.97;5059178;28;20065;-73
2022/11/03 03:12:07;;;;;;;12.05;2.42;;;;;;;13.14;100.00;101010.38;5064475;28;20457;-73
2022/11/03 03:14:40;;;;;;;16.08;2.88;;;;;;;13.13;100.00;101014.34;5065081;28;20040;-72
2022/11/03 03:17:17;;;;;;;11.00;2.40;;;;;;;13.15;100.00;101014.72;5064409;28;20059;-74
2022/11/03 03:20:05;;;;;;;15.20;3.50;;;;;;;13.15;100.00;101000.03;5061564;28;20053;-72
2022/11/03 03:22:42;;;;;;;14.52;2.60;;;;;;;13.17;100.00;101011.56;5058527;28;20068;-73
2022/11/03 03:25:25;;;;;;;10.32;2.42;;;;;;;13.11;100.00;101005.63;5059911;28;20058;-74
2022/11/03 03:28:22;;;;;;;14.30;2.70;;;;;;;13.16;100.00;100996.09;5057673;28;20048;-72
2022/11/03 03:30:52;;;;;;;12.50;3.00;;;;;;;13.11;100.00;101002.84;5059517;28;20055;-71
2022/11/03 03:33:24;;;;;;;15.65;3.15;;;;;;;13.13;100.00;100996.91;5062895;28;20111;-72
2022/11/03 03:35:53;;;;;;;15.57;2.50;;;;;;;13.12;100.00;100992.56;5058013;28;20434;-72
2022/11/03 03:38:24;;;;;;;9.80;2.30;;;;;;;13.12;100.00;100987.75;5060780;28;20094;-72
2022/11/03 03:40:54;;;;;;;14.48;3.08;;;;;;;13.18;100.00;100991.69;5058015;28;20509;-74
2022/11/03 03:43:24;;;;;;;13.63;3.30;;;;;;;13.16;100.00;100990.53;5056135;28;20041;-74
2022/11/03 03:45:54;;;;;;;14.20;3.13;;;;;;;13.16;100.00;100982.97;5060511;28;20040;-73
2022/11/03 03:48:21;;;;;;;16.15;2.80;;;;;;;13.18;100.00;100977.00;5060750;28;20056;-73
2022/11/03 03:50:51;;;;;;;18.88;3.42;;;;;;;13.17;100.00;100976.22;5063801;28;20414;-71
2022/11/03 03:53:18;;;;;;;20.90;3.95;;;;;;;13.16;100.00;100971.84;5059762;28;20060;-72
2022/11/03 03:55:50;;;;;;;13.13;3.25;;;;;;;13.18;100.00;100980.59;5062719;28;20044;-72
2022/11/03 03:58:17;;;;;;;20.27;3.30;;;;;;;13.19;100.00;100965.47;5061539;28;20055;-72
2022/11/03 04:00:44;;;;;;;5.28;1.83;;;;;;;13.08;100.00;100967.56;5059222;28;20060;-72
2022/11/03 04:03:28;;;;;;;14.10;2.92;;;;;;;13.13;100.00;100969.13;5057422;28;20084;-71
2022/11/03 04:05:55;;;;;;;13.73;2.83;;;;;;;13.20;100.00;100953.19;5062547;28;20106;-70
2022/11/03 04:08:22;;;;;;;7.38;2.35;;;;;;;13.15;100.00;100956.38;5059146;28;20303;-76
2022/11/03 04:24:33;;;;;;;12.63;2.83;;;;;;;13.17;100.00;100947.66;5057006;28;20550;-74
2022/11/03 04:27:15;;;;;;;20.40;3.15;;;;;;;13.17;100.00;100951.22;5052687;28;20067;-73
2022/11/03 04:29:41;;;;;;;10.88;2.53;;;;;;;13.15;100.00;100950.84;5055232;28;20442;-74
2022/11/03 04:32:14;;;;;;;15.65;2.90;;;;;;;13.17;100.00;100948.44;5055021;28;20052;-73
2022/11/03 04:34:41;;;;;;;11.05;2.58;;;;;;;13.16;100.00;100946.06;5059279;28;20049;-71
2022/11/03 04:37:14;;;;;;;13.23;2.13;;;;;;;13.18;100.00;100947.25;5057375;28;20071;-73
2022/11/03 04:39:41;;;;;;;14.32;2.90;;;;;;;13.26;100.00;100936.88;5059285;28;20099;-71
2022/11/03 04:42:19;;;;;;;13.35;2.67;;;;;;;13.26;100.00;100931.31;5054875;28;20444;-72
2022/11/03 04:44:47;;;;;;;16.00;3.30;;;;;;;13.26;100.00;100928.53;5060329;28;20064;-71
2022/11/03 04:47:15;;;;;;;7.15;1.52;;;;;;;13.28;100.00;100932.47;5060933;28;20045;-71
2022/11/03 04:49:44;;;;;;;6.28;2.03;;;;;;;13.31;100.00;100922.50;5058969;28;20110;-73
2022/11/03 04:52:16;;;;;;;15.18;3.95;;;;;;;13.36;100.00;100922.88;5059109;28;20041;-70
2022/11/03 04:54:44;;;;;;;15.55;3.15;;;;;;;13.41;100.00;100918.84;5067715;28;20670;-72
2022/11/03 04:57:15;;;;;;;11.57;2.38;;;;;;;13.41;100.00;100913.28;5059123;28;20055;-70
2022/11/03 04:59:45;;;;;;;19.35;2.85;;;;;;;13.47;100.00;100906.09;5061930;28;20059;-74
2022/11/03 05:02:14;;;;;;;10.23;2.22;;;;;;;13.42;100.00;100907.31;5068265;28;20044;-72
2022/11/03 05:04:43;;;;;;;10.60;2.05;;;;;;;13.46;100.00;100905.28;5066020;28;20082;-72
2022/11/03 05:07:33;;;;;;;5.15;1.73;;;;;;;13.47;100.00;100892.19;5061163;28;20053;-73
2022/11/03 05:10:06;;;;;;;12.98;2.45;;;;;;;13.54;100.00;100894.91;5065578;28;20060;-72
2022/11/03 05:12:33;;;;;;;12.00;2.67;;;;;;;13.55;100.00;100893.69;5063972;28;20056;-70
2022/11/03 05:15:12;;;;;;;7.88;2.40;;;;;;;13.57;100.00;100889.28;5062261;28;20052;-72
2022/11/03 05:17:38;;;;;;;15.25;3.30;;;;;;;13.58;100.00;100879.75;5066731;28;20052;-72
2022/11/03 05:20:22;;;;;;;11.18;2.17;;;;;;;13.54;100.00;100881.00;5066558;28;20098;-71
2022/11/03 05:22:50;;;;;;;12.57;2.45;;;;;;;13.59;100.00;100877.75;5060173;28;20055;-71
2022/11/03 05:25:36;;;;;;;9.90;2.30;;;;;;;13.59;100.00;100874.97;5064613;28;20044;-72
2022/11/03 05:28:23;;;;;;;12.88;2.70;;;;;;;13.65;100.00;100871.34;5063690;28;20475;-72
2022/11/03 05:30:51;;;;;;;15.68;2.53;;;;;;;13.66;100.00;100877.69;5062862;28;20055;-73
2022/11/03 05:33:20;;;;;;;13.02;2.47;;;;;;;13.71;100.00;100872.47;5062312;28;20142;-71
2022/11/03 05:35:46;;;;;;;11.45;2.40;;;;;;;13.76;100.00;100862.88;5068227;28;20052;-71
2022/11/03 05:38:15;;;;;;;15.40;2.72;;;;;;;13.76;100.00;100863.66;5060920;28;20056;-73
2022/11/03 05:40:42;;;;;;;13.77;3.08;;;;;;;13.81;100.00;100854.88;5058730;28;20992;-72
2022/11/03 05:43:12;;;;;;;10.38;2.83;;;;;;;13.79;100.00;100851.72;5065997;28;20046;-72
2022/11/03 05:45:39;;;;;;;10.52;2.40;;;;;;;13.80;100.00;100842.16;5067822;28;20079;-72
2022/11/03 05:48:15;;;;;;;7.72;1.95;;;;;;;13.76;100.00;100844.19;5060202;28;20045;-73
2022/11/03 05:50:41;;;;;;;11.77;3.33;;;;;;;13.78;100.00;100847.38;5059587;28;20053;-76
2022/11/03 05:53:11;;;;;;;15.57;2.97;;;;;;;13.82;100.00;100844.53;5065221;28;20049;-72
2022/11/03 05:55:39;;;;;;;18.73;3.10;;;;;;;13.85;100.00;100846.47;5065959;28;20413;-74
2022/11/03 05:58:31;;;;;;;10.35;1.88;;;;;;;13.82;100.00;100844.53;5066345;28;20052;-70
2022/11/03 06:00:59;;;;;;;20.02;3.58;;;;;;;13.87;100.00;100842.06;5063217;28;20211;-72
2022/11/03 06:03:30;;;;;;;17.08;4.47;;;;;;;13.91;100.00;100830.91;5057150;28;20090;-71
2022/11/03 06:05:58;;;;;;;13.73;2.30;;;;;;;13.97;100.00;100823.69;5057654;28;20412;-72
2022/11/03 06:08:32;;;;;;;13.82;2.80;;;;;;;13.96;100.00;100827.66;5066209;28;20052;-71
2022/11/03 06:11:00;;;;;;;15.77;3.00;;;;;;;13.90;100.00;100830.09;5062399;28;20045;-75
2022/11/03 06:13:33;;;;;;;15.73;3.25;;;;;;;13.92;100.00;100816.59;5064609;28;20045;-72
2022/11/03 06:16:03;;;;;;;12.75;2.80;;;;;;;13.93;100.00;100823.72;5065602;28;20060;-71
2022/11/03 06:18:35;;;;;;;13.02;3.13;;;;;;;13.94;100.00;100822.50;5058671;28;20051;-70
2022/11/03 06:21:08;;;;;;;6.55;1.60;;;;;;;13.85;100.00;100825.03;5065201;28;20055;-72
2022/11/03 06:23:36;;;;;;;12.60;2.72;;;;;;;13.96;100.00;100822.88;5058472;28;20056;-73
2022/11/03 06:26:09;;;;;;;10.98;2.33;;;;;;;14.00;100.00;100823.63;5065222;28;20056;-73
2022/11/03 06:28:38;;;;;;;14.00;2.45;;;;;;;14.05;100.00;100814.03;5066028;28;20048;-73
2022/11/03 06:31:21;;;;;;;13.43;2.70;;;;;;;14.00;100.00;100803.38;5057098;28;20077;-71
2022/11/03 06:33:51;;;;;;;18.00;2.53;;;;;;;14.01;100.00;100814.06;5057334;28;20588;-73
2022/11/03 06:36:20;;;;;;;11.95;3.10;;;;;;;14.08;100.00;100808.44;5063734;28;20053;-74
2022/11/03 06:38:51;;;;;;;14.73;2.53;;;;;;;14.08;100.00;100804.84;5059886;28;20072;-72
2022/11/03 06:41:23;;;;;;;7.85;1.88;;;;;;;13.96;100.00;100803.41;5058531;28;20053;-73
2022/11/03 06:43:50;;;;;;;10.02;1.95;;;;;;;14.07;100.00;100801.25;5067041;28;20044;-71
2022/11/03 06:46:23;;;;;;;11.98;2.65;;;;;;;14.08;100.00;100796.50;5064921;28;20056;-73
2022/11/03 06:49:18;;;;;;;13.25;2.60;;;;;;;14.14;100.00;100803.19;5057271;28;20053;-73
2022/11/03 06:51:45;;;;;;;13.60;2.70;;;;;;;14.11;100.00;100782.53;5057727;28;20064;-73
2022/11/03 06:54:14;;;;;;;14.45;2.85;;;;;;;14.11;100.00;100795.66;5055382;28;20528;-72
2022/11/03 06:56:42;;;;;;;9.68;2.00;;;;;;;14.06;100.00;100785.78;5058361;28;20052;-73
2022/11/03 06:59:13;;;;;;;13.00;2.85;;;;;;;14.10;100.00;100791.28;5064835;28;20059;-74
2022/11/03 07:01:39;;;;;;;11.25;2.67;;;;;;;14.14;100.00;100784.47;5057307;28;20044;-73
2022/11/03 07:04:20;;;;;;;9.63;2.30;;;;;;;14.17;100.00;100778.06;5055459;28;20044;-73
2022/11/03 07:06:47;;;;;;;14.27;3.15;;;;;;;14.16;100.00;100787.63;5057341;28;20053;-73
2022/11/03 07:09:22;;;;;;;7.20;1.73;;;;;;;14.14;100.00;100778.91;5068065;28;20501;-73
2022/11/03 07:11:51;;;;;;;7.32;1.73;;;;;;;14.16;100.00;100776.50;5064553;28;20048;-72
2022/11/03 07:14:25;;;;;;;13.10;2.97;;;;;;;14.21;100.00;100773.22;5067143;28;20056;-72
2022/11/03 07:17:02;;;;;;;13.85;2.28;;;;;;;14.21;100.00;100775.25;5067006;28;20075;-74
2022/11/03 07:19:32;;;;;;;3.30;1.38;;;;;;;14.19;100.00;100766.53;5057529;28;20037;-72
2022/11/03 07:22:07;;;;;;;14.98;2.97;;;;;;;14.27;100.00;100754.88;5066580;28;20048;-73
2022/11/03 07:24:40;;;;;;;12.75;3.17;;;;;;;14.29;100.00;100746.91;5059653;28;20664;-74
2022/11/03 07:27:21;;;;;;;10.02;2.55;;;;;;;14.24;100.00;100755.72;5062958;28;20044;-73
2022/11/03 07:29:49;;;;;;;21.52;3.47;;;;;;;14.35;100.00;100750.78;5067053;28;20056;-74
2022/11/03 07:32:22;;;;;;;10.77;2.13;;;;;;;14.30;100.00;100754.06;5058272;28;20249;-73
2022/11/03 07:34:52;;;;;;;9.85;2.70;;;;;;;14.38;100.00;100744.38;5068465;28;20148;-74
2022/11/03 07:37:33;;;;;;;8.98;3.20;;;;;;;14.40;100.00;100739.19;5058231;28;20052;-74
2022/11/03 07:39:59;;;;;;;17.05;3.53;;;;;;;14.45;100.00;100730.34;5065246;28;20707;-74
2022/11/03 07:42:31;;;;;;;13.38;2.97;;;;;;;14.49;100.00;100731.09;5061494;28;20078;-74
2022/11/03 07:44:57;;;;;;;11.38;2.95;;;;;;;14.48;100.00;100734.28;5063759;28;20497;-74
2022/11/03 07:47:26;;;;;;;15.93;3.15;;;;;;;14.49;100.00;100722.72;5063334;28;20056;-74
2022/11/03 07:49:56;;;;;;;11.23;2.67;;;;;;;14.45;100.00;100727.53;5065253;28;20061;-73
2022/11/03 07:52:25;;;;;;;12.13;3.08;;;;;;;14.62;100.00;100723.66;5057239;28;20060;-71
2022/11/03 07:54:55;;;;;;;7.90;2.35;;;;;;;14.54;100.00;100722.22;5063575;28;20488;-71
2022/11/03 07:57:26;;;;;;;18.75;3.97;;;;;;;14.71;100.00;100725.91;5063501;28;20052;-72
2022/11/03 07:59:57;;;;;;;9.95;2.13;;;;;;;14.65;100.00;100731.19;5064702;28;20114;-72
2022/11/03 08:02:41;;;;;;;15.68;2.85;;;;;;;14.73;100.00;100720.72;5064501;28;20492;-73
2022/11/03 08:05:08;;;;;;;15.85;3.65;;;;;;;14.85;100.00;100715.31;5062516;28;20053;-72
2022/11/03 08:07:35;;;;;;;8.35;2.35;;;;;;;14.82;100.00;100718.94;5065341;28;20055;-71
2022/11/03 08:10:01;;;;;;;15.32;2.78;;;;;;;14.91;100.00;100699.69;5064784;28;20052;-72
2022/11/03 08:12:28;;;;;;;12.70;2.97;;;;;;;15.04;100.00;100700.63;5060125;28;20449;-71
2022/11/03 08:14:54;;;;;;;15.50;3.13;;;;;;;15.05;100.00;100709.75;5060056;28;20052;-73
2022/11/03 08:17:21;;;;;;;11.18;2.53;;;;;;;15.04;99.48;100697.03;5063270;28;20139;-71
2022/11/03 08:19:48;;;;;;;10.75;2.75;;;;;;;15.11;99.04;100697.69;5064509;28;20056;-74
2022/11/03 08:22:14;;;;;;;1.83;1.17;;;;;;;15.12;98.23;100684.56;5059316;28;20508;-71
2022/11/03 08:24:40;;;;;;;13.38;2.10;;;;;;;15.11;97.06;100691.31;5046051;28;20052;-72
2022/11/03 08:27:07;;;;;;;12.38;2.90;;;;;;;15.29;96.96;100689.75;5047108;28;20045;-72
2022/11/03 08:29:33;;;;;;;11.85;2.70;;;;;;;15.25;96.74;100689.03;5042884;28;20102;-73
2022/11/03 08:32:00;;;;;;;9.25;1.67;;;;;;;15.16;95.83;100682.47;5044359;28;20052;-73
2022/11/03 08:34:26;;;;;;;14.60;2.78;;;;;;;15.34;94.99;100677.31;5051869;28;20052;-74
2022/11/03 08:36:53;;;;;;;10.60;2.47;;;;;;;15.35;95.49;100674.09;5041384;28;20056;-72
2022/11/03 08:39:19;;;;;;;8.90;2.15;;;;;;;15.26;94.71;100679.47;5049797;28;20064;-72
2022/11/03 08:41:46;;;;;;;4.35;1.23;;;;;;;15.34;95.88;100677.31;5046449;28;20048;-73
2022/11/03 08:44:12;;;;;;;5.70;1.35;;;;;;;15.39;95.12;100671.28;5048040;28;20056;-73
2022/11/03 08:46:39;;;;;;;9.43;2.13;;;;;;;15.34;93.87;100672.53;5058416;28;20052;-73
2022/11/03 08:49:06;;;;;;;2.75;1.08;;;;;;;15.42;93.39;100664.81;5055190;28;20579;-73
2022/11/03 08:51:32;;;;;;;14.15;2.30;;;;;;;15.47;93.39;100653.16;5056360;28;20059;-73
2022/11/03 08:53:58;;;;;;;10.18;2.30;;;;;;;15.53;92.42;100657.78;5050405;28;20052;-73
2022/11/03 08:56:25;;;;;;;6.15;1.55;;;;;;;15.48;92.67;100665.13;5043975;28;20048;-74
2022/11/03 08:58:51;;;;;;;11.15;2.70;;;;;;;15.64;92.24;100659.56;5051841;28;20063;-73
2022/11/03 09:01:18;;;;;;;7.80;1.75;;;;;;;15.60;92.28;100656.06;5049670;28;20060;-74
2022/11/03 09:03:45;;;;;;;3.85;1.25;;;;;;;15.59;91.10;100652.47;5048269;28;20866;-73
2022/11/03 09:06:12;;;;;;;11.25;2.55;;;;;;;15.69;91.12;100640.31;5050199;28;20082;-74
2022/11/03 09:08:38;;;;;;;4.90;1.90;;;;;;;15.68;90.39;100637.94;5049623;28;20040;-74
2022/11/03 09:11:25;;;;;;;6.38;1.92;;;;;;;15.83;90.16;100636.41;5045397;28;20094;-73
2022/11/03 09:13:51;;;;;;;4.70;0.85;;;;;;;15.86;89.36;100627.19;5048697;28;20127;-73
2022/11/03 09:16:18;;;;;;;9.00;2.70;;;;;;;15.89;89.19;100610.34;5044477;28;20055;-74
2022/11/03 09:18:44;;;;;;;14.88;2.60;;;;;;;15.98;88.47;100616.09;5047131;28;20056;-73
2022/11/03 09:21:12;;;;;;;8.35;3.55;;;;;;;15.91;87.44;100616.28;5045533;28;20057;-73
2022/11/03 09:23:38;;;;;;;5.75;1.70;;;;;;;15.99;87.69;100611.31;5039716;28;20048;-70
2022/11/03 09:26:05;;;;;;;11.88;2.35;;;;;;;16.17;86.75;100597.69;5048780;28;20056;-74
2022/11/03 09:28:32;;;;;;;10.40;2.20;;;;;;;16.15;86.76;100586.16;5044225;28;20048;-73
2022/11/03 09:30:58;;;;;;;7.63;1.98;;;;;;;16.16;85.09;100587.75;5044847;28;20492;-74
2022/11/03 09:33:24;;;;;;;8.88;2.10;;;;;;;16.15;85.57;100575.78;5042534;28;20060;-74
2022/11/03 09:35:51;;;;;;;14.85;2.10;;;;;;;16.24;83.93;100580.75;5042965;28;20540;-74
2022/11/03 09:38:17;;;;;;;6.03;1.10;;;;;;;16.25;84.37;100594.28;5033310;28;20052;-74
2022/11/03 09:40:44;;;;;;;3.25;1.27;;;;;;;16.17;84.10;100584.53;5043018;28;20072;-74
2022/11/03 09:43:11;;;;;;;9.70;2.03;;;;;;;16.29;82.61;100566.25;5044014;28;20049;-74
2022/11/03 09:45:38;;;;;;;7.53;2.28;;;;;;;16.49;83.29;100564.13;5046078;28;20059;-72
2022/11/03 09:48:09;;;;;;;12.38;2.05;;;;;;;16.56;81.48;100558.34;5044211;28;20049;-73
2022/11/03 09:50:36;;;;;;;1.80;0.90;;;;;;;16.58;81.48;100553.13;5035096;28;20562;-72
2022/11/03 09:53:03;;;;;;;10.93;2.22;;;;;;;16.76;82.05;100547.78;5041574;28;20049;-74
2022/11/03 09:55:32;;;;;;;6.78;1.63;;;;;;;16.72;79.61;100559.09;5044183;28;20131;-72
2022/11/03 09:58:01;;;;;;;7.82;1.70;;;;;;;16.73;78.47;100543.88;5048030;28;20052;-72
2022/11/03 10:00:28;;;;;;;14.10;2.30;;;;;;;16.86;79.49;100533.53;5044165;28;20051;-76
2022/11/03 10:02:55;;;;;;;5.45;1.48;;;;;;;16.80;77.76;100535.28;5041557;28;20051;-73
2022/11/03 10:05:26;;;;;;;9.80;1.40;;;;;;;16.81;77.24;100522.88;5047632;28;20159;-73
2022/11/03 10:08:00;;;;;;;10.82;1.63;;;;;;;16.93;76.98;100524.13;5043979;28;20048;-74
2022/11/03 10:10:26;;;;;;;9.02;1.70;;;;;;;16.96;75.58;100506.47;5046015;28;20060;-74
2022/11/03 10:12:54;;;;;;;10.88;1.88;;;;;;;16.92;76.33;100511.41;5043257;28;20052;-74
2022/11/03 10:15:22;;;;;;;10.40;1.55;;;;;;;17.10;74.59;100501.25;5045850;28;20918;-72
2022/11/03 10:17:49;;;;;;;7.15;1.80;;;;;;;17.14;73.98;100501.13;5045288;28;20131;-71
2022/11/03 10:20:21;;;;;;;8.60;1.95;;;;;;;17.16;73.20;100504.25;5043855;28;20052;-73
2022/11/03 10:22:51;;;;;;;9.68;1.52;;;;;;;17.05;72.62;100499.00;5041699;28;20057;-75
2022/11/03 10:25:40;;;;;;;18.92;3.95;;;;;;;17.18;72.77;100490.63;5062667;28;20060;-74
2022/11/03 10:28:13;;;;;;;8.98;2.08;;;;;;;17.19;71.92;100469.81;5042256;28;20056;-73
2022/11/03 10:30:48;;;;;;;15.30;2.15;;;;;;;17.21;70.89;100450.59;5037728;28;20934;-73
2022/11/03 10:33:51;;;;;;;5.38;1.20;;;;;;;17.24;70.57;100430.09;5040821;28;20121;-74
2022/11/03 10:36:17;;;;;;;5.97;1.55;;;;;;;17.18;70.10;100429.13;5043844;28;20056;-74
2022/11/03 10:38:46;;;;;;;6.95;1.55;;;;;;;17.35;71.53;100427.75;5040746;28;20194;-75
2022/11/03 10:41:16;;;;;;;3.35;1.40;;;;;;;17.32;70.08;100418.22;5040726;28;20735;-73
2022/11/03 10:44:09;;;;;;;11.52;1.85;;;;;;;17.31;68.87;100415.88;5039808;28;20071;-73
2022/11/03 10:46:37;;;;;;;7.60;2.28;;;;;;;17.36;69.37;100413.34;5035692;28;20052;-73
2022/11/03 10:49:18;;;;;;;6.43;1.02;;;;;;;17.19;68.00;100417.50;5044189;28;20048;-73
2022/11/03 10:51:51;;;;;;;8.38;2.03;;;;;;;17.22;68.27;100418.59;5042048;28;20056;-73
2022/11/03 10:54:23;;;;;;;7.93;2.40;;;;;;;17.40;68.21;100414.00;5041961;28;20114;-74
2022/11/03 10:56:51;;;;;;;11.38;1.88;;;;;;;17.45;67.88;100421.81;5049757;28;20059;-74
2022/11/03 10:59:26;;;;;;;9.50;2.25;;;;;;;17.44;67.34;100402.69;5040534;28;20159;-72
2022/11/03 11:01:53;;;;;;;7.15;1.60;;;;;;;17.41;67.75;100395.97;5041359;28;20060;-75
2022/11/03 11:04:19;;;;;;;6.20;1.30;;;;;;;17.26;67.23;100408.09;5026907;28;20765;-77
2022/11/03 11:06:46;;;;;;;3.35;1.33;;;;;;;17.33;66.74;100393.88;5045136;28;20079;-76
2022/11/03 11:09:20;;;;;;;4.03;1.10;;;;;;;17.32;66.88;100392.31;5044981;28;20048;-73
2022/11/03 11:12:13;;;;;;;5.38;1.60;;;;;;;17.38;66.85;100366.09;5042676;28;20056;-72
2022/11/03 11:14:58;;;;;;;5.20;1.27;;;;;;;17.49;66.61;100349.75;5044045;28;20052;-72
2022/11/03 11:17:36;;;;;;;14.25;1.58;;;;;;;17.54;66.16;100351.19;5039984;28;20052;-73
2022/11/03 11:20:20;;;;;;;8.02;1.90;;;;;;;17.61;65.62;100340.56;5038350;28;20151;-72
2022/11/03 11:22:49;;;;;;;3.28;0.98;;;;;;;17.65;65.21;100343.25;5039715;28;20142;-73
2022/11/03 11:25:19;;;;;;;11.52;1.98;;;;;;;17.98;65.50;100344.41;5037755;28;20096;-72
2022/11/03 11:27:46;;;;;;;8.88;1.90;;;;;;;18.17;64.35;100337.69;5033190;28;20055;-72
2022/11/03 11:30:18;;;;;;;5.57;1.40;;;;;;;18.20;63.76;100333.19;5035394;28;20874;-73
2022/11/03 11:32:45;;;;;;;5.70;1.90;;;;;;;18.41;62.00;100330.38;5043025;28;20059;-72
2022/11/03 11:35:37;;;;;;;11.35;2.20;;;;;;;19.53;60.39;100308.88;5032157;28;20044;-73
2022/11/03 11:38:41;;;;;;;6.65;1.92;;;;;;;20.70;52.27;100310.63;5038593;28;20964;-74
2022/11/03 11:41:08;;;;;;;8.32;2.00;;;;;;;21.22;50.04;100312.06;5039644;28;20052;-74
2022/11/03 11:43:35;;;;;;;9.20;2.17;;;;;;;21.71;48.11;100296.19;5040624;28;20048;-72
2022/11/03 11:46:23;;;;;;;7.05;1.45;;;;;;;22.16;46.66;100303.44;5047291;28;20052;-74
2022/11/03 11:48:56;;;;;;;6.80;1.83;;;;;;;23.64;45.45;100293.56;5041050;28;20499;-75
2022/11/03 11:51:23;;;;;;;11.13;1.83;;;;;;;23.89;42.83;100292.78;5037732;28;20056;-73